Latest Weather Observations for Low Isles

IDQ60801

Issued at 9:32 am EST Monday 20 November 2017 (issued every 30 minutes, with the page automatically refreshed every 10 minutes)

About weather observations | Map of weather stations | Latest weather observations for QLD | Other Formats
Station Details ID: 031037 Name: LOW ISLES LIGHTHOUSE Lat: -16.38 Lon: 145.56 Height: 2.9 m
Data from the previous 72 hours. | See also: Recent months at Low Isles
Date/Time
EST
Temp
°C
App
Temp
°C
Dew
Point
°C
Rel
Hum
%
Delta-T
°C
Wind Press
QNH
hPa
Press
MSL
hPa
Rain since
9am
mm
Dir  Spd
km/h
Gust
km/h
Spd
kts
Gust
kts
20/09:30am 29.6 30.4 20.7 58 5.9 E 17 20 9 11 1013.2 - 0.0
20/09:00am 28.9 30.6 20.9 62 5.3 E 13 17 7 9 1013.1 1013.0 0.0
20/08:30am 27.6 29.0 20.4 65 4.7 ESE 13 17 7 9 1013.0 - 0.0
20/08:00am 27.0 28.4 21.1 70 3.9 ESE 15 17 8 9 1012.9 - 0.0
20/07:30am 26.7 28.1 21.0 71 3.8 ESE 15 17 8 9 1012.9 - 0.0
20/07:00am 26.3 27.7 21.1 73 3.4 ESE 15 20 8 11 1012.4 - 0.0
20/06:30am 26.0 27.6 21.4 76 3.1 E 15 20 8 11 1011.9 - 0.0
20/06:00am 25.5 26.1 21.0 76 3.0 E 19 20 10 11 1011.5 1011.4 0.0
20/05:30am 25.5 26.1 21.0 76 3.0 E 19 24 10 13 1011.3 - 0.0
20/05:00am 25.5 25.9 20.7 75 3.1 E 19 24 10 13 1011.1 - 0.0
20/04:30am 25.6 26.6 21.1 76 3.0 E 17 22 9 12 1011.0 - 0.0
20/04:00am 25.5 26.1 21.0 76 3.0 E 19 22 10 12 1010.5 - 0.0
20/03:30am 25.5 26.2 21.2 77 2.8 E 19 22 10 12 1010.0 - 0.0
20/03:00am 25.5 27.0 21.2 77 2.8 E 15 20 8 11 1010.3 1010.2 0.0
20/02:30am 25.4 26.0 21.1 77 2.8 ENE 19 20 10 11 1010.4 - 0.0
20/02:00am 25.5 26.6 21.2 77 2.8 E 17 20 9 11 1010.4 - 0.0
20/01:30am 25.7 26.7 21.1 76 3.0 ENE 17 20 9 11 1010.6 - 0.0
20/01:00am 25.8 26.8 21.0 75 3.2 ENE 17 20 9 11 1010.9 - 0.0
20/12:30am 25.7 26.7 21.1 76 3.0 ENE 17 20 9 11 1011.3 - 0.0
20/12:00am 25.9 26.7 21.3 76 3.0 E 19 22 10 12 1011.7 1011.6 0.0
 
Date/Time
EST
Temp
°C
App
Temp
°C
Dew
Point
°C
Rel
Hum
%
Delta-T
°C
Wind Press
QNH
hPa
Press
MSL
hPa
Rain since
9am
mm
Dir  Spd
km/h
Gust
km/h
Spd
kts
Gust
kts
19/11:30pm 26.1 27.0 21.5 76 3.1 ENE 19 22 10 12 1011.9 - 0.0
19/11:00pm 26.1 26.8 21.5 76 3.1 ENE 20 26 11 14 1012.0 - 0.0
19/10:30pm 26.0 26.8 21.4 76 3.1 ENE 19 22 10 12 1012.0 - 0.0
19/10:00pm 26.2 26.8 21.4 75 3.2 ENE 20 24 11 13 1011.9 - 0.0
19/09:30pm 26.4 27.1 21.6 75 3.2 ENE 20 26 11 14 1011.5 - 0.0
19/09:00pm 26.5 27.3 21.7 75 3.2 E 20 26 11 14 1011.2 1011.1 0.0
19/08:30pm 26.7 27.7 22.1 76 3.1 ENE 20 26 11 14 1011.1 - 0.0
19/08:00pm 26.8 28.2 21.8 74 3.3 ENE 17 22 9 12 1010.9 - 0.0
19/07:30pm 27.0 28.5 22.0 74 3.4 E 17 22 9 12 1010.4 - 0.0
19/07:00pm 26.7 28.5 21.2 72 3.6 E 13 17 7 9 1010.3 - 0.0
19/06:30pm 27.2 29.4 21.2 69 4.0 ENE 11 15 6 8 1009.9 - 0.0
19/06:00pm 27.5 29.0 20.6 66 4.5 E 13 17 7 9 1009.7 1009.6 0.0
19/05:30pm 28.0 30.2 21.1 66 4.6 E 11 17 6 9 1009.5 - 0.0
19/05:00pm 28.7 30.4 21.0 63 5.1 E 13 19 7 10 1009.3 - 0.0
19/04:30pm 29.9 30.7 20.7 57 6.1 ENE 17 20 9 11 1009.3 - 0.0
19/04:00pm 30.8 31.8 21.0 56 6.5 NE 17 20 9 11 1009.2 - 0.0
19/03:30pm 31.2 32.2 21.1 55 6.8 ENE 17 24 9 13 1009.5 - 0.0
19/03:00pm 31.5 32.8 21.7 56 6.6 E 17 20 9 11 1009.6 1009.5 0.0
19/02:30pm 31.5 33.1 21.4 55 6.8 E 15 20 8 11 1010.0 - 0.0
19/02:00pm 30.9 32.5 20.8 55 6.7 E 13 22 7 12 1010.5 - 0.0
19/01:30pm 31.3 33.1 21.8 57 6.4 E 15 20 8 11 1010.7 - 0.0
19/01:00pm 31.2 33.0 21.9 57 6.3 ESE 15 20 8 11 1011.0 - 0.0
19/12:30pm 31.2 33.1 21.4 56 6.6 E 13 19 7 10 1011.4 - 0.0
19/12:00pm 30.0 31.9 21.4 60 5.8 SE 13 20 7 11 1011.8 1011.7 0.0
19/11:30am 29.9 31.1 20.7 57 6.1 SE 15 20 8 11 1012.0 - 0.0
19/11:00am 29.8 31.1 20.9 59 5.9 ESE 15 19 8 10 1012.1 - 0.0
19/10:30am 30.2 32.4 21.8 60 5.7 E 13 17 7 9 1012.4 - 0.0
19/10:00am 28.6 30.5 21.4 65 4.8 SE 13 17 7 9 1012.5 - 0.0
19/09:30am 28.8 30.4 20.8 62 5.3 E 13 19 7 10 1012.7 - 0.0
19/09:00am 29.2 30.7 21.2 62 5.3 E 15 20 8 11 1012.5 1012.4 0.0
19/08:30am 28.4 30.3 21.4 66 4.7 E 13 19 7 10 1012.3 - 0.0
19/08:00am 27.3 29.0 21.6 71 3.8 E 15 19 8 10 1012.1 - 0.0
19/07:30am 26.6 28.6 21.6 74 3.3 ESE 13 17 7 9 1012.0 - 0.0
19/07:00am 26.0 28.1 21.7 77 2.9 ESE 13 17 7 9 1011.9 - 0.0
19/06:30am 25.5 27.0 21.2 77 2.8 ESE 15 19 8 10 1011.5 - 0.0
19/06:00am 25.2 26.5 20.9 77 2.8 E 15 17 8 9 1010.9 1010.8 0.0
19/05:30am 25.3 26.7 21.0 77 2.8 E 15 19 8 10 1010.4 - 0.0
19/05:00am 25.5 26.3 20.7 75 3.1 E 17 20 9 11 1010.0 - 0.0
19/04:30am 25.5 26.6 21.2 77 2.8 E 17 20 9 11 1009.9 - 0.0
19/04:00am 25.4 26.6 21.5 79 2.6 E 17 20 9 11 1009.7 - 0.0
19/03:30am 25.3 26.5 21.4 79 2.6 ESE 17 20 9 11 1009.5 - 0.0
19/03:00am 25.1 27.0 21.4 80 2.5 ESE 13 15 7 8 1009.3 1009.2 0.0
19/02:30am 25.0 26.9 21.3 80 2.4 ESE 13 17 7 9 1009.2 - 0.0
19/02:00am 25.2 26.6 21.1 78 2.7 ESE 15 20 8 11 1009.3 - 0.0
19/01:30am 25.4 26.9 21.3 78 2.7 ESE 15 19 8 10 1009.6 - 0.0
19/01:00am 25.6 27.1 21.3 77 2.8 ESE 15 17 8 9 1009.9 - 0.0
19/12:30am 25.8 27.0 21.5 77 2.9 ESE 17 20 9 11 1010.3 - 0.0
19/12:00am 26.1 28.0 22.0 78 2.7 ESE 15 20 8 11 1010.7 1010.6 0.0
 
Date/Time
EST
Temp
°C
App
Temp
°C
Dew
Point
°C
Rel
Hum
%
Delta-T
°C
Wind Press
QNH
hPa
Press
MSL
hPa
Rain since
9am
mm
Dir  Spd
km/h
Gust
km/h
Spd
kts
Gust
kts
18/11:30pm 26.1 27.7 22.2 79 2.6 ESE 17 20 9 11 1011.0 - 0.0
18/11:00pm 26.0 27.3 21.7 77 2.9 ESE 17 20 9 11 1011.2 - 0.0
18/10:30pm 26.0 26.8 21.7 77 2.9 ESE 20 26 11 14 1011.0 - 0.0
18/10:00pm 26.2 27.0 21.8 77 2.9 SE 20 24 11 13 1011.1 - 0.0
18/09:30pm 26.2 27.0 21.8 77 2.9 SE 20 24 11 13 1010.8 - 0.0
18/09:00pm 26.4 27.9 22.0 77 2.9 SE 17 24 9 13 1010.5 1010.4 0.0
18/08:30pm 26.4 27.9 22.0 77 2.9 SE 17 20 9 11 1010.3 - 0.0
18/08:00pm 26.4 27.4 21.8 76 3.1 SE 19 24 10 13 1010.2 - 0.0
18/07:30pm 26.5 27.4 21.5 74 3.3 SE 19 22 10 12 1010.0 - 0.0
18/07:00pm 26.5 27.3 21.7 75 3.2 SE 20 26 11 14 1010.0 - 0.0
18/06:30pm 26.9 27.8 21.9 74 3.3 SE 20 24 11 13 1010.0 - 0.0
18/06:00pm 27.2 28.2 21.7 72 3.7 ESE 19 24 10 13 1009.9 1009.8 0.0
18/05:30pm 27.5 28.6 21.3 69 4.1 ESE 17 20 9 11 1009.8 - 0.0
18/05:00pm 27.8 28.8 21.1 67 4.4 ESE 17 22 9 12 1009.9 - 0.0
18/04:30pm 28.4 29.6 21.4 66 4.7 ESE 17 20 9 11 1009.9 - 0.0
18/04:00pm 28.6 29.9 21.6 66 4.7 SE 17 22 9 12 1009.9 - 0.0
18/03:30pm 28.7 29.7 21.0 63 5.1 SE 17 20 9 11 1010.0 - 0.0
18/03:00pm 29.4 30.0 20.3 58 6.0 ESE 17 22 9 12 1010.3 1010.2 0.0
18/02:30pm 29.5 30.4 20.9 60 5.7 SE 17 22 9 12 1010.5 - 0.0
18/02:00pm 29.1 29.6 21.1 62 5.3 SE 20 24 11 13 1011.0 - 0.0
18/01:30pm 29.4 30.3 21.6 63 5.2 SE 19 24 10 13 1011.4 - 0.0
18/01:00pm 29.1 29.9 21.3 62 5.2 SE 19 24 10 13 1011.7 - 0.0
18/12:30pm 29.4 29.9 20.8 60 5.7 SE 19 26 10 14 1011.9 - 0.0
18/12:00pm 29.8 30.2 20.9 59 5.9 ESE 20 26 11 14 1012.2 1012.1 0.0
18/11:30am 28.3 28.5 20.6 63 5.1 SE 20 26 11 14 1012.3 - 0.0
18/11:00am 28.1 29.5 21.9 69 4.2 SSE 17 20 9 11 1012.4 - 0.0
18/10:30am 27.7 28.7 21.0 67 4.4 SSE 17 20 9 11 1012.5 - 0.0
18/10:00am 27.5 28.5 21.1 68 4.2 S 17 20 9 11 1012.6 - 0.0
18/09:30am 27.1 27.5 20.7 68 4.2 SSE 19 22 10 12 1012.7 - 0.0
18/09:00am 26.5 26.9 21.0 72 3.6 SSE 20 24 11 13 1012.6 1012.5 0.0
18/08:30am 26.3 26.9 21.1 73 3.4 SSE 19 20 10 11 1012.4 - 0.0
18/08:00am 25.7 25.7 20.9 75 3.2 SSE 22 26 12 14 1012.1 - 0.0
18/07:30am 25.9 26.0 21.1 75 3.2 SSE 22 28 12 15 1011.7 - 0.0
18/07:00am 25.7 25.4 21.1 76 3.0 SSE 24 28 13 15 1011.4 - 0.0
18/06:30am 25.5 25.0 20.7 75 3.1 SSE 24 28 13 15 1011.1 - 0.0
18/06:00am 25.4 25.1 21.1 77 2.8 SSE 24 28 13 15 1010.5 1010.4 0.0
18/05:30am 25.4 25.5 21.1 77 2.8 SSE 22 26 12 14 1010.3 - 0.0
18/05:00am 25.4 25.5 21.1 77 2.8 SSE 22 26 12 14 1010.3 - 0.0
18/04:30am 25.3 25.2 20.8 76 3.0 SSE 22 26 12 14 1010.3 - 0.0
18/04:00am 25.4 25.1 20.4 74 3.3 SE 22 28 12 15 1010.2 - 0.0
18/03:30am 25.3 25.4 20.3 74 3.3 ESE 20 26 11 14 1010.2 - 0.0
18/03:00am 25.2 24.6 19.8 72 3.5 SE 22 28 12 15 1010.3 1010.2 0.0
18/02:30am 25.3 23.9 19.7 71 3.6 SE 26 32 14 17 1010.6 - 0.0
18/02:00am 25.4 24.6 20.0 72 3.5 SE 24 30 13 16 1010.8 - 0.0
18/01:30am 25.4 24.3 19.5 70 3.8 SE 24 30 13 16 1011.0 - 0.0
18/01:00am 25.6 24.1 20.2 72 3.5 SE 28 32 15 17 1011.4 - 0.0
18/12:30am 25.7 24.8 20.7 74 3.3 SE 26 35 14 19 1011.6 - 0.0
18/12:00am 25.8 24.5 20.6 73 3.4 SE 28 33 15 18 1011.8 1011.7 0.0
 
Date/Time
EST
Temp
°C
App
Temp
°C
Dew
Point
°C
Rel
Hum
%
Delta-T
°C
Wind Press
QNH
hPa
Press
MSL
hPa
Rain since
9am
mm
Dir  Spd
km/h
Gust
km/h
Spd
kts
Gust
kts
17/11:30pm 25.9 24.8 21.1 75 3.2 SE 28 33 15 18 1012.1 - 0.0
17/11:00pm 26.0 25.2 21.7 77 2.9 ESE 28 33 15 18 1012.3 - 0.0
17/10:30pm 26.1 25.0 21.1 74 3.3 ESE 28 33 15 18 1012.2 - 0.0
17/10:00pm 26.2 25.3 21.4 75 3.2 ESE 28 33 15 18 1012.2 - 0.0
17/09:30pm 26.4 26.2 22.0 77 2.9 SE 26 32 14 17 1012.1 - 0.0
17/09:00pm 26.3 25.4 21.5 75 3.2 SE 28 33 15 18 1011.8 1011.7 0.0
17/08:30pm 26.3 25.4 21.5 75 3.2 SE 28 35 15 19 1011.8 - 0.0
17/08:00pm 26.4 25.2 21.6 75 3.2 SE 30 37 16 20 1011.4 - 0.0
17/07:30pm 26.4 24.8 21.6 75 3.2 SE 32 37 17 20 1011.0 - 0.0
17/07:00pm 26.6 26.5 22.2 77 3.0 SE 26 35 14 19 1010.8 - 0.0
17/06:30pm 26.6 25.6 22.0 76 3.1 SE 30 35 16 19 1010.6 - 0.0
17/06:00pm 27.0 26.4 22.0 74 3.4 SE 28 32 15 17 1010.7 1010.6 0.0
17/05:30pm 27.4 26.6 21.7 71 3.8 SE 28 32 15 17 1010.7 - 0.0
17/05:00pm 27.6 27.2 21.6 70 4.0 SE 26 33 14 18 1010.5 - 0.0
17/04:30pm 27.9 27.3 21.2 67 4.5 ESE 26 33 14 18 1010.3 - 0.0
17/04:00pm 28.0 27.2 20.8 65 4.8 ESE 26 33 14 18 1010.5 - 0.0
17/03:30pm 28.8 29.0 22.1 67 4.5 SE 24 32 13 17 1010.8 - 0.0
17/03:00pm 29.3 29.5 22.0 64 4.9 ESE 24 30 13 16 1010.8 1010.7 0.0
17/02:30pm 29.0 28.6 21.7 64 4.9 SE 26 32 14 17 1011.0 - 0.0
17/02:00pm 29.2 29.0 21.2 62 5.3 ESE 24 32 13 17 1011.1 - 0.0
17/01:30pm 30.0 29.7 21.9 62 5.5 ESE 26 33 14 18 1011.4 - 0.0
17/01:00pm 29.7 28.9 21.6 61 5.4 ESE 28 33 15 18 1011.6 - 0.0
17/12:30pm 29.7 28.8 21.4 61 5.6 ESE 28 35 15 19 1012.0 - 0.0
17/12:00pm 29.6 29.1 21.5 61 5.4 SE 26 32 14 17 1012.3 1012.2 0.0
17/11:30am 29.5 29.0 21.4 61 5.4 SE 26 32 14 17 1012.6 - 0.0
17/11:00am 28.8 29.1 21.6 65 4.8 SE 22 26 12 14 1012.7 - 0.0
17/10:30am 29.0 28.5 21.5 64 5.0 SE 26 30 14 16 1013.0 - 0.0
17/10:00am 28.3 27.5 20.8 63 5.0 SE 26 32 14 17 1013.2 - 0.0

Other Formats:

Comma delimited format used in spreadsheet applications
http://www.bom.gov.au/fwo/IDQ60801/IDQ60801.94285.axf

JavaScript Object Notation format (JSON) in row-major order
http://www.bom.gov.au/fwo/IDQ60801/IDQ60801.94285.json